sensor_id;sensor_type;location;lat;lon;timestamp;P1;durP1;ratioP1;P2;durP2;ratioP2
57317;SDS011;43157;50.982;18.132;2024-03-06T00:02:04;104.10;;;41.10;;
57317;SDS011;43157;50.982;18.132;2024-03-06T00:04:30;95.10;;;41.40;;
57317;SDS011;43157;50.982;18.132;2024-03-06T00:06:56;97.50;;;39.60;;
57317;SDS011;43157;50.982;18.132;2024-03-06T00:09:23;99.50;;;40.50;;
57317;SDS011;43157;50.982;18.132;2024-03-06T00:11:50;95.40;;;38.80;;
57317;SDS011;43157;50.982;18.132;2024-03-06T00:14:16;103.30;;;38.40;;
57317;SDS011;43157;50.982;18.132;2024-03-06T00:16:42;102.40;;;36.50;;
57317;SDS011;43157;50.982;18.132;2024-03-06T00:19:09;95.90;;;38.40;;
57317;SDS011;43157;50.982;18.132;2024-03-06T00:21:35;95.20;;;38.00;;
57317;SDS011;43157;50.982;18.132;2024-03-06T00:24:03;100.40;;;39.00;;
57317;SDS011;43157;50.982;18.132;2024-03-06T00:26:29;99.20;;;38.70;;
57317;SDS011;43157;50.982;18.132;2024-03-06T00:28:56;95.30;;;36.90;;
57317;SDS011;43157;50.982;18.132;2024-03-06T00:31:21;98.60;;;37.70;;
57317;SDS011;43157;50.982;18.132;2024-03-06T00:33:47;101.10;;;39.90;;
57317;SDS011;43157;50.982;18.132;2024-03-06T00:36:14;96.80;;;36.00;;
57317;SDS011;43157;50.982;18.132;2024-03-06T00:38:40;95.00;;;37.00;;
57317;SDS011;43157;50.982;18.132;2024-03-06T00:41:06;89.40;;;34.70;;
57317;SDS011;43157;50.982;18.132;2024-03-06T00:43:32;100.10;;;38.30;;
57317;SDS011;43157;50.982;18.132;2024-03-06T00:45:58;97.30;;;40.00;;
57317;SDS011;43157;50.982;18.132;2024-03-06T00:48:25;106.70;;;40.30;;
57317;SDS011;43157;50.982;18.132;2024-03-06T00:50:51;91.90;;;34.90;;
57317;SDS011;43157;50.982;18.132;2024-03-06T00:53:17;89.70;;;38.50;;
57317;SDS011;43157;50.982;18.132;2024-03-06T00:55:43;102.40;;;42.00;;
57317;SDS011;43157;50.982;18.132;2024-03-06T00:58:10;94.50;;;38.60;;
57317;SDS011;43157;50.982;18.132;2024-03-06T01:00:36;96.80;;;39.30;;
57317;SDS011;43157;50.982;18.132;2024-03-06T01:03:02;89.40;;;36.70;;
57317;SDS011;43157;50.982;18.132;2024-03-06T01:05:28;81.00;;;34.00;;
57317;SDS011;43157;50.982;18.132;2024-03-06T01:07:55;81.80;;;34.70;;
57317;SDS011;43157;50.982;18.132;2024-03-06T01:10:22;82.80;;;34.90;;
57317;SDS011;43157;50.982;18.132;2024-03-06T01:12:49;74.40;;;29.60;;
57317;SDS011;43157;50.982;18.132;2024-03-06T01:15:15;80.10;;;30.40;;
57317;SDS011;43157;50.982;18.132;2024-03-06T01:17:41;93.60;;;37.40;;
57317;SDS011;43157;50.982;18.132;2024-03-06T01:20:07;72.10;;;28.60;;
57317;SDS011;43157;50.982;18.132;2024-03-06T01:22:34;85.50;;;34.60;;
57317;SDS011;43157;50.982;18.132;2024-03-06T01:24:59;93.80;;;36.80;;
57317;SDS011;43157;50.982;18.132;2024-03-06T01:27:26;80.90;;;32.40;;
57317;SDS011;43157;50.982;18.132;2024-03-06T01:29:52;75.90;;;30.80;;
57317;SDS011;43157;50.982;18.132;2024-03-06T01:32:18;69.80;;;30.30;;
57317;SDS011;43157;50.982;18.132;2024-03-06T01:34:44;83.90;;;32.50;;
57317;SDS011;43157;50.982;18.132;2024-03-06T01:37:10;74.60;;;28.50;;
57317;SDS011;43157;50.982;18.132;2024-03-06T01:39:37;87.00;;;33.80;;
57317;SDS011;43157;50.982;18.132;2024-03-06T01:42:03;104.80;;;41.90;;
57317;SDS011;43157;50.982;18.132;2024-03-06T01:44:29;93.10;;;37.90;;
57317;SDS011;43157;50.982;18.132;2024-03-06T01:46:54;78.30;;;33.20;;
57317;SDS011;43157;50.982;18.132;2024-03-06T01:49:21;88.50;;;34.90;;
57317;SDS011;43157;50.982;18.132;2024-03-06T01:51:51;77.20;;;31.70;;
57317;SDS011;43157;50.982;18.132;2024-03-06T01:54:19;73.80;;;31.20;;
57317;SDS011;43157;50.982;18.132;2024-03-06T01:56:45;75.70;;;29.90;;
57317;SDS011;43157;50.982;18.132;2024-03-06T01:59:12;71.40;;;29.90;;
57317;SDS011;43157;50.982;18.132;2024-03-06T02:01:39;82.20;;;33.00;;
57317;SDS011;43157;50.982;18.132;2024-03-06T02:04:06;74.60;;;31.90;;
57317;SDS011;43157;50.982;18.132;2024-03-06T02:06:33;85.30;;;33.70;;
57317;SDS011;43157;50.982;18.132;2024-03-06T02:08:58;74.90;;;29.80;;
57317;SDS011;43157;50.982;18.132;2024-03-06T02:11:24;69.80;;;30.90;;
57317;SDS011;43157;50.982;18.132;2024-03-06T02:13:50;69.20;;;30.60;;
57317;SDS011;43157;50.982;18.132;2024-03-06T02:16:16;71.90;;;30.10;;
57317;SDS011;43157;50.982;18.132;2024-03-06T02:18:51;71.60;;;29.30;;
57317;SDS011;43157;50.982;18.132;2024-03-06T02:21:19;61.00;;;25.10;;
57317;SDS011;43157;50.982;18.132;2024-03-06T02:23:46;62.50;;;27.00;;
57317;SDS011;43157;50.982;18.132;2024-03-06T02:26:11;66.30;;;28.40;;
57317;SDS011;43157;50.982;18.132;2024-03-06T02:28:37;74.10;;;29.30;;
57317;SDS011;43157;50.982;18.132;2024-03-06T02:31:03;62.50;;;26.50;;
57317;SDS011;43157;50.982;18.132;2024-03-06T02:33:30;65.70;;;27.30;;
57317;SDS011;43157;50.982;18.132;2024-03-06T02:35:56;63.90;;;27.10;;
57317;SDS011;43157;50.982;18.132;2024-03-06T02:38:22;73.50;;;28.80;;
57317;SDS011;43157;50.982;18.132;2024-03-06T02:40:49;76.20;;;29.20;;
57317;SDS011;43157;50.982;18.132;2024-03-06T02:43:15;68.60;;;28.70;;
57317;SDS011;43157;50.982;18.132;2024-03-06T02:45:41;67.30;;;28.80;;
57317;SDS011;43157;50.982;18.132;2024-03-06T02:48:07;57.40;;;24.00;;
57317;SDS011;43157;50.982;18.132;2024-03-06T02:50:33;62.70;;;25.60;;
57317;SDS011;43157;50.982;18.132;2024-03-06T02:53:00;72.10;;;27.90;;
57317;SDS011;43157;50.982;18.132;2024-03-06T02:55:26;72.20;;;27.40;;
57317;SDS011;43157;50.982;18.132;2024-03-06T02:57:52;72.30;;;29.40;;
57317;SDS011;43157;50.982;18.132;2024-03-06T03:00:18;65.50;;;28.00;;
57317;SDS011;43157;50.982;18.132;2024-03-06T03:02:44;72.60;;;29.00;;
57317;SDS011;43157;50.982;18.132;2024-03-06T03:05:11;68.50;;;27.40;;
57317;SDS011;43157;50.982;18.132;2024-03-06T03:07:37;71.10;;;31.30;;
57317;SDS011;43157;50.982;18.132;2024-03-06T03:10:03;66.60;;;28.20;;
57317;SDS011;43157;50.982;18.132;2024-03-06T03:12:30;61.70;;;26.00;;
57317;SDS011;43157;50.982;18.132;2024-03-06T03:14:56;56.90;;;23.30;;
57317;SDS011;43157;50.982;18.132;2024-03-06T03:17:22;63.30;;;25.10;;
57317;SDS011;43157;50.982;18.132;2024-03-06T03:19:49;64.70;;;26.10;;
57317;SDS011;43157;50.982;18.132;2024-03-06T03:22:15;66.90;;;26.50;;
57317;SDS011;43157;50.982;18.132;2024-03-06T03:24:41;67.60;;;30.30;;
57317;SDS011;43157;50.982;18.132;2024-03-06T03:27:07;69.50;;;29.50;;
57317;SDS011;43157;50.982;18.132;2024-03-06T03:29:34;72.00;;;31.20;;
57317;SDS011;43157;50.982;18.132;2024-03-06T03:32:00;76.10;;;30.00;;
57317;SDS011;43157;50.982;18.132;2024-03-06T03:34:25;72.30;;;30.90;;
57317;SDS011;43157;50.982;18.132;2024-03-06T03:36:51;63.70;;;27.70;;
57317;SDS011;43157;50.982;18.132;2024-03-06T03:39:17;60.70;;;25.60;;
57317;SDS011;43157;50.982;18.132;2024-03-06T03:41:48;73.00;;;30.20;;
57317;SDS011;43157;50.982;18.132;2024-03-06T03:44:14;74.80;;;30.80;;
57317;SDS011;43157;50.982;18.132;2024-03-06T03:46:41;69.60;;;30.20;;
57317;SDS011;43157;50.982;18.132;2024-03-06T03:49:07;75.50;;;30.40;;
57317;SDS011;43157;50.982;18.132;2024-03-06T03:51:35;69.00;;;28.80;;
57317;SDS011;43157;50.982;18.132;2024-03-06T03:54:01;67.50;;;28.60;;
57317;SDS011;43157;50.982;18.132;2024-03-06T03:56:27;67.20;;;28.60;;
57317;SDS011;43157;50.982;18.132;2024-03-06T03:58:54;60.40;;;27.20;;
57317;SDS011;43157;50.982;18.132;2024-03-06T04:01:21;70.30;;;28.40;;
57317;SDS011;43157;50.982;18.132;2024-03-06T04:03:47;61.80;;;26.10;;
57317;SDS011;43157;50.982;18.132;2024-03-06T04:06:13;63.20;;;25.90;;
57317;SDS011;43157;50.982;18.132;2024-03-06T04:08:40;57.30;;;26.10;;
57317;SDS011;43157;50.982;18.132;2024-03-06T04:11:06;56.90;;;24.40;;
57317;SDS011;43157;50.982;18.132;2024-03-06T04:13:36;54.50;;;22.80;;
57317;SDS011;43157;50.982;18.132;2024-03-06T04:16:02;56.40;;;23.60;;
57317;SDS011;43157;50.982;18.132;2024-03-06T04:18:29;51.20;;;22.40;;
57317;SDS011;43157;50.982;18.132;2024-03-06T04:21:05;54.70;;;24.20;;
57317;SDS011;43157;50.982;18.132;2024-03-06T04:23:31;56.30;;;22.90;;
57317;SDS011;43157;50.982;18.132;2024-03-06T04:25:58;57.60;;;23.20;;
57317;SDS011;43157;50.982;18.132;2024-03-06T04:28:25;58.20;;;23.30;;
57317;SDS011;43157;50.982;18.132;2024-03-06T04:30:51;59.60;;;23.50;;
57317;SDS011;43157;50.982;18.132;2024-03-06T04:33:17;65.10;;;24.70;;
57317;SDS011;43157;50.982;18.132;2024-03-06T04:35:43;59.00;;;25.10;;
57317;SDS011;43157;50.982;18.132;2024-03-06T04:38:09;61.60;;;26.00;;
57317;SDS011;43157;50.982;18.132;2024-03-06T04:40:36;61.90;;;25.30;;
57317;SDS011;43157;50.982;18.132;2024-03-06T04:43:02;59.20;;;24.70;;
57317;SDS011;43157;50.982;18.132;2024-03-06T04:45:28;58.70;;;24.20;;
57317;SDS011;43157;50.982;18.132;2024-03-06T04:47:55;54.80;;;23.80;;
57317;SDS011;43157;50.982;18.132;2024-03-06T04:50:21;55.20;;;22.60;;
57317;SDS011;43157;50.982;18.132;2024-03-06T04:52:47;59.90;;;24.60;;
57317;SDS011;43157;50.982;18.132;2024-03-06T04:55:13;60.00;;;24.20;;
57317;SDS011;43157;50.982;18.132;2024-03-06T04:57:42;54.50;;;23.30;;
57317;SDS011;43157;50.982;18.132;2024-03-06T05:00:09;61.90;;;24.30;;
57317;SDS011;43157;50.982;18.132;2024-03-06T05:02:36;57.70;;;23.70;;
57317;SDS011;43157;50.982;18.132;2024-03-06T05:05:03;57.30;;;22.00;;
57317;SDS011;43157;50.982;18.132;2024-03-06T05:07:30;50.70;;;20.50;;
57317;SDS011;43157;50.982;18.132;2024-03-06T05:09:56;50.60;;;23.10;;
57317;SDS011;43157;50.982;18.132;2024-03-06T05:12:24;51.20;;;21.40;;
57317;SDS011;43157;50.982;18.132;2024-03-06T05:14:53;48.10;;;19.50;;
57317;SDS011;43157;50.982;18.132;2024-03-06T05:17:20;51.70;;;21.20;;
57317;SDS011;43157;50.982;18.132;2024-03-06T05:19:49;55.90;;;20.90;;
57317;SDS011;43157;50.982;18.132;2024-03-06T05:22:16;56.50;;;21.90;;
57317;SDS011;43157;50.982;18.132;2024-03-06T05:24:42;53.30;;;22.50;;
57317;SDS011;43157;50.982;18.132;2024-03-06T05:27:08;58.60;;;22.70;;
57317;SDS011;43157;50.982;18.132;2024-03-06T05:29:35;62.10;;;24.30;;
57317;SDS011;43157;50.982;18.132;2024-03-06T05:32:02;62.40;;;23.40;;
57317;SDS011;43157;50.982;18.132;2024-03-06T05:34:29;57.70;;;23.30;;
57317;SDS011;43157;50.982;18.132;2024-03-06T05:36:55;54.20;;;20.90;;
57317;SDS011;43157;50.982;18.132;2024-03-06T05:39:21;58.80;;;23.20;;
57317;SDS011;43157;50.982;18.132;2024-03-06T05:41:47;54.80;;;23.20;;
57317;SDS011;43157;50.982;18.132;2024-03-06T05:44:13;57.30;;;21.70;;
57317;SDS011;43157;50.982;18.132;2024-03-06T05:46:40;58.70;;;22.40;;
57317;SDS011;43157;50.982;18.132;2024-03-06T05:49:06;58.00;;;22.80;;
57317;SDS011;43157;50.982;18.132;2024-03-06T05:51:31;51.60;;;20.60;;
57317;SDS011;43157;50.982;18.132;2024-03-06T05:53:57;60.30;;;23.80;;
57317;SDS011;43157;50.982;18.132;2024-03-06T05:56:23;59.20;;;22.10;;
57317;SDS011;43157;50.982;18.132;2024-03-06T05:58:50;61.60;;;22.70;;
57317;SDS011;43157;50.982;18.132;2024-03-06T06:01:16;61.10;;;24.80;;
57317;SDS011;43157;50.982;18.132;2024-03-06T06:03:46;53.00;;;21.60;;
57317;SDS011;43157;50.982;18.132;2024-03-06T06:06:15;58.50;;;22.20;;
57317;SDS011;43157;50.982;18.132;2024-03-06T06:08:42;49.70;;;20.50;;
57317;SDS011;43157;50.982;18.132;2024-03-06T06:11:09;52.70;;;20.30;;
57317;SDS011;43157;50.982;18.132;2024-03-06T06:13:36;45.30;;;18.50;;
57317;SDS011;43157;50.982;18.132;2024-03-06T06:16:02;41.70;;;15.40;;
57317;SDS011;43157;50.982;18.132;2024-03-06T06:18:28;46.90;;;19.90;;
57317;SDS011;43157;50.982;18.132;2024-03-06T06:20:54;62.30;;;22.80;;
57317;SDS011;43157;50.982;18.132;2024-03-06T06:23:20;66.20;;;26.70;;
57317;SDS011;43157;50.982;18.132;2024-03-06T06:25:46;67.40;;;23.40;;
57317;SDS011;43157;50.982;18.132;2024-03-06T06:28:13;60.50;;;25.10;;
57317;SDS011;43157;50.982;18.132;2024-03-06T06:30:39;59.80;;;24.50;;
57317;SDS011;43157;50.982;18.132;2024-03-06T06:33:05;66.70;;;26.40;;
57317;SDS011;43157;50.982;18.132;2024-03-06T06:35:31;64.90;;;26.40;;
57317;SDS011;43157;50.982;18.132;2024-03-06T06:37:58;55.50;;;24.30;;
57317;SDS011;43157;50.982;18.132;2024-03-06T06:40:24;61.20;;;26.50;;
57317;SDS011;43157;50.982;18.132;2024-03-06T06:42:50;67.40;;;26.90;;
57317;SDS011;43157;50.982;18.132;2024-03-06T06:45:17;76.50;;;30.00;;
57317;SDS011;43157;50.982;18.132;2024-03-06T06:47:43;72.10;;;27.70;;
57317;SDS011;43157;50.982;18.132;2024-03-06T06:50:09;76.20;;;29.00;;
57317;SDS011;43157;50.982;18.132;2024-03-06T06:52:40;72.90;;;27.60;;
57317;SDS011;43157;50.982;18.132;2024-03-06T06:55:06;74.80;;;27.80;;
57317;SDS011;43157;50.982;18.132;2024-03-06T06:57:34;73.30;;;30.00;;
57317;SDS011;43157;50.982;18.132;2024-03-06T07:00:01;76.40;;;29.60;;
57317;SDS011;43157;50.982;18.132;2024-03-06T07:02:31;87.70;;;33.40;;
57317;SDS011;43157;50.982;18.132;2024-03-06T07:04:57;75.40;;;31.50;;
57317;SDS011;43157;50.982;18.132;2024-03-06T07:07:24;80.00;;;31.80;;
57317;SDS011;43157;50.982;18.132;2024-03-06T07:09:50;74.20;;;29.80;;
57317;SDS011;43157;50.982;18.132;2024-03-06T07:12:16;82.20;;;30.20;;
57317;SDS011;43157;50.982;18.132;2024-03-06T07:14:43;83.20;;;33.60;;
57317;SDS011;43157;50.982;18.132;2024-03-06T07:17:09;88.10;;;33.50;;
57317;SDS011;43157;50.982;18.132;2024-03-06T07:19:35;81.80;;;33.70;;
57317;SDS011;43157;50.982;18.132;2024-03-06T07:22:01;86.00;;;34.50;;
57317;SDS011;43157;50.982;18.132;2024-03-06T07:24:28;90.70;;;35.40;;
57317;SDS011;43157;50.982;18.132;2024-03-06T07:26:54;82.70;;;33.60;;
57317;SDS011;43157;50.982;18.132;2024-03-06T07:29:20;77.70;;;32.20;;
57317;SDS011;43157;50.982;18.132;2024-03-06T07:43:58;73.30;;;31.60;;
57317;SDS011;43157;50.982;18.132;2024-03-06T07:46:28;68.60;;;31.70;;
57317;SDS011;43157;50.982;18.132;2024-03-06T07:48:54;75.50;;;31.50;;
57317;SDS011;43157;50.982;18.132;2024-03-06T07:51:20;75.10;;;32.90;;
57317;SDS011;43157;50.982;18.132;2024-03-06T07:53:46;82.50;;;32.10;;
57317;SDS011;43157;50.982;18.132;2024-03-06T07:56:13;81.70;;;33.70;;
57317;SDS011;43157;50.982;18.132;2024-03-06T07:58:39;80.30;;;33.50;;
57317;SDS011;43157;50.982;18.132;2024-03-06T08:01:05;82.90;;;33.40;;
57317;SDS011;43157;50.982;18.132;2024-03-06T08:03:33;89.90;;;35.70;;
57317;SDS011;43157;50.982;18.132;2024-03-06T08:05:59;104.20;;;42.10;;
57317;SDS011;43157;50.982;18.132;2024-03-06T08:08:25;88.70;;;35.40;;
57317;SDS011;43157;50.982;18.132;2024-03-06T08:10:52;82.70;;;34.20;;
57317;SDS011;43157;50.982;18.132;2024-03-06T08:13:18;90.80;;;34.30;;
57317;SDS011;43157;50.982;18.132;2024-03-06T08:15:46;93.00;;;35.70;;
57317;SDS011;43157;50.982;18.132;2024-03-06T08:18:12;86.00;;;32.90;;
57317;SDS011;43157;50.982;18.132;2024-03-06T08:20:39;91.00;;;36.20;;
57317;SDS011;43157;50.982;18.132;2024-03-06T08:23:07;72.50;;;30.20;;
57317;SDS011;43157;50.982;18.132;2024-03-06T08:25:33;68.60;;;28.80;;
57317;SDS011;43157;50.982;18.132;2024-03-06T08:27:59;77.60;;;31.90;;
57317;SDS011;43157;50.982;18.132;2024-03-06T08:30:25;71.70;;;30.10;;
57317;SDS011;43157;50.982;18.132;2024-03-06T08:32:51;74.50;;;30.10;;
57317;SDS011;43157;50.982;18.132;2024-03-06T08:35:18;73.40;;;31.20;;
57317;SDS011;43157;50.982;18.132;2024-03-06T08:37:46;71.70;;;28.30;;
57317;SDS011;43157;50.982;18.132;2024-03-06T08:40:13;78.70;;;31.10;;
57317;SDS011;43157;50.982;18.132;2024-03-06T08:42:43;77.00;;;32.00;;
57317;SDS011;43157;50.982;18.132;2024-03-06T08:45:10;87.10;;;32.80;;
57317;SDS011;43157;50.982;18.132;2024-03-06T08:47:37;83.40;;;32.60;;
57317;SDS011;43157;50.982;18.132;2024-03-06T08:50:03;91.70;;;37.00;;
57317;SDS011;43157;50.982;18.132;2024-03-06T08:52:29;84.90;;;33.40;;
57317;SDS011;43157;50.982;18.132;2024-03-06T08:55:00;65.60;;;27.60;;
57317;SDS011;43157;50.982;18.132;2024-03-06T08:57:26;72.10;;;30.90;;
57317;SDS011;43157;50.982;18.132;2024-03-06T08:59:54;76.40;;;31.40;;
57317;SDS011;43157;50.982;18.132;2024-03-06T09:02:20;71.00;;;28.40;;
57317;SDS011;43157;50.982;18.132;2024-03-06T09:04:46;63.40;;;26.70;;
57317;SDS011;43157;50.982;18.132;2024-03-06T09:07:12;64.40;;;27.20;;
57317;SDS011;43157;50.982;18.132;2024-03-06T09:09:39;76.50;;;31.80;;
57317;SDS011;43157;50.982;18.132;2024-03-06T09:12:05;88.70;;;36.60;;
57317;SDS011;43157;50.982;18.132;2024-03-06T09:14:33;80.20;;;34.70;;
57317;SDS011;43157;50.982;18.132;2024-03-06T09:17:00;63.00;;;28.70;;
57317;SDS011;43157;50.982;18.132;2024-03-06T09:19:26;80.80;;;33.50;;
57317;SDS011;43157;50.982;18.132;2024-03-06T09:21:52;78.60;;;32.30;;
57317;SDS011;43157;50.982;18.132;2024-03-06T09:24:20;75.00;;;31.40;;
57317;SDS011;43157;50.982;18.132;2024-03-06T09:26:47;77.70;;;32.00;;
57317;SDS011;43157;50.982;18.132;2024-03-06T09:29:13;77.50;;;31.20;;
57317;SDS011;43157;50.982;18.132;2024-03-06T09:31:39;77.50;;;31.00;;
57317;SDS011;43157;50.982;18.132;2024-03-06T09:34:05;67.80;;;29.60;;
57317;SDS011;43157;50.982;18.132;2024-03-06T09:36:31;70.40;;;31.40;;
57317;SDS011;43157;50.982;18.132;2024-03-06T09:38:58;69.00;;;29.50;;
57317;SDS011;43157;50.982;18.132;2024-03-06T09:41:25;67.10;;;28.00;;
57317;SDS011;43157;50.982;18.132;2024-03-06T09:43:51;65.30;;;28.30;;
57317;SDS011;43157;50.982;18.132;2024-03-06T09:46:17;64.00;;;28.40;;
57317;SDS011;43157;50.982;18.132;2024-03-06T09:48:47;59.90;;;27.90;;
57317;SDS011;43157;50.982;18.132;2024-03-06T09:51:17;62.30;;;28.00;;
57317;SDS011;43157;50.982;18.132;2024-03-06T09:53:43;58.30;;;27.70;;
57317;SDS011;43157;50.982;18.132;2024-03-06T09:56:09;59.90;;;27.70;;
57317;SDS011;43157;50.982;18.132;2024-03-06T09:58:35;62.80;;;28.50;;
57317;SDS011;43157;50.982;18.132;2024-03-06T10:01:02;59.70;;;25.90;;
57317;SDS011;43157;50.982;18.132;2024-03-06T10:03:29;58.70;;;27.90;;
57317;SDS011;43157;50.982;18.132;2024-03-06T10:05:55;56.70;;;26.70;;
57317;SDS011;43157;50.982;18.132;2024-03-06T10:08:22;49.90;;;22.80;;
57317;SDS011;43157;50.982;18.132;2024-03-06T10:10:49;51.20;;;24.10;;
57317;SDS011;43157;50.982;18.132;2024-03-06T10:13:16;54.00;;;25.00;;
57317;SDS011;43157;50.982;18.132;2024-03-06T10:15:55;51.10;;;24.40;;
57317;SDS011;43157;50.982;18.132;2024-03-06T10:18:22;52.90;;;23.60;;
57317;SDS011;43157;50.982;18.132;2024-03-06T10:20:56;49.00;;;22.70;;
57317;SDS011;43157;50.982;18.132;2024-03-06T10:23:23;50.90;;;23.40;;
57317;SDS011;43157;50.982;18.132;2024-03-06T10:25:49;59.00;;;26.90;;
57317;SDS011;43157;50.982;18.132;2024-03-06T10:28:17;58.80;;;26.30;;
57317;SDS011;43157;50.982;18.132;2024-03-06T10:30:44;60.50;;;28.70;;
57317;SDS011;43157;50.982;18.132;2024-03-06T10:33:14;54.20;;;26.30;;
57317;SDS011;43157;50.982;18.132;2024-03-06T10:35:43;55.90;;;26.70;;
57317;SDS011;43157;50.982;18.132;2024-03-06T10:38:09;58.00;;;27.90;;
57317;SDS011;43157;50.982;18.132;2024-03-06T10:40:40;57.50;;;26.60;;
57317;SDS011;43157;50.982;18.132;2024-03-06T10:43:07;55.10;;;25.30;;
57317;SDS011;43157;50.982;18.132;2024-03-06T10:48:13;51.50;;;23.70;;
57317;SDS011;43157;50.982;18.132;2024-03-06T10:50:40;50.70;;;23.80;;
57317;SDS011;43157;50.982;18.132;2024-03-06T10:53:11;54.60;;;24.70;;
57317;SDS011;43157;50.982;18.132;2024-03-06T10:55:38;55.40;;;23.50;;
57317;SDS011;43157;50.982;18.132;2024-03-06T10:58:05;52.90;;;23.60;;
57317;SDS011;43157;50.982;18.132;2024-03-06T11:00:37;50.40;;;23.20;;
57317;SDS011;43157;50.982;18.132;2024-03-06T11:03:06;49.80;;;25.80;;
57317;SDS011;43157;50.982;18.132;2024-03-06T11:05:37;53.80;;;24.30;;
57317;SDS011;43157;50.982;18.132;2024-03-06T11:08:12;55.80;;;25.10;;
57317;SDS011;43157;50.982;18.132;2024-03-06T11:10:39;50.50;;;23.90;;
57317;SDS011;43157;50.982;18.132;2024-03-06T11:13:22;51.90;;;23.50;;
57317;SDS011;43157;50.982;18.132;2024-03-06T11:15:50;52.30;;;21.50;;
57317;SDS011;43157;50.982;18.132;2024-03-06T11:23:32;48.80;;;22.00;;
57317;SDS011;43157;50.982;18.132;2024-03-06T11:26:02;50.80;;;23.70;;
57317;SDS011;43157;50.982;18.132;2024-03-06T11:28:32;60.50;;;25.50;;
57317;SDS011;43157;50.982;18.132;2024-03-06T11:31:00;54.90;;;24.50;;
57317;SDS011;43157;50.982;18.132;2024-03-06T11:33:37;62.40;;;27.20;;
57317;SDS011;43157;50.982;18.132;2024-03-06T11:36:19;55.70;;;25.20;;
57317;SDS011;43157;50.982;18.132;2024-03-06T11:39:04;64.10;;;28.00;;
57317;SDS011;43157;50.982;18.132;2024-03-06T11:44:12;49.20;;;17.50;;
57317;SDS011;43157;50.982;18.132;2024-03-06T11:46:41;46.40;;;18.90;;
57317;SDS011;43157;50.982;18.132;2024-03-06T11:49:19;34.40;;;16.30;;
57317;SDS011;43157;50.982;18.132;2024-03-06T11:51:49;35.60;;;15.30;;
57317;SDS011;43157;50.982;18.132;2024-03-06T11:54:17;39.20;;;17.80;;
57317;SDS011;43157;50.982;18.132;2024-03-06T11:56:49;39.30;;;15.70;;
57317;SDS011;43157;50.982;18.132;2024-03-06T11:59:26;44.10;;;19.30;;
57317;SDS011;43157;50.982;18.132;2024-03-06T12:01:54;40.50;;;18.00;;
57317;SDS011;43157;50.982;18.132;2024-03-06T12:04:21;42.60;;;17.80;;
57317;SDS011;43157;50.982;18.132;2024-03-06T12:06:47;34.60;;;15.40;;
57317;SDS011;43157;50.982;18.132;2024-03-06T12:09:14;40.30;;;18.80;;
57317;SDS011;43157;50.982;18.132;2024-03-06T12:11:40;46.40;;;20.90;;
57317;SDS011;43157;50.982;18.132;2024-03-06T12:14:19;43.00;;;19.70;;
57317;SDS011;43157;50.982;18.132;2024-03-06T12:16:59;48.10;;;20.50;;
57317;SDS011;43157;50.982;18.132;2024-03-06T12:19:26;46.00;;;21.40;;
57317;SDS011;43157;50.982;18.132;2024-03-06T12:21:54;42.00;;;20.20;;
57317;SDS011;43157;50.982;18.132;2024-03-06T12:24:20;45.10;;;20.60;;
57317;SDS011;43157;50.982;18.132;2024-03-06T12:26:46;44.90;;;20.50;;
57317;SDS011;43157;50.982;18.132;2024-03-06T12:29:27;46.20;;;20.40;;
57317;SDS011;43157;50.982;18.132;2024-03-06T12:31:54;49.40;;;21.40;;
57317;SDS011;43157;50.982;18.132;2024-03-06T12:34:20;48.30;;;20.10;;
57317;SDS011;43157;50.982;18.132;2024-03-06T12:36:47;50.70;;;21.40;;
57317;SDS011;43157;50.982;18.132;2024-03-06T12:39:14;50.60;;;21.50;;
57317;SDS011;43157;50.982;18.132;2024-03-06T12:41:43;46.50;;;20.30;;
57317;SDS011;43157;50.982;18.132;2024-03-06T12:44:10;55.00;;;21.40;;
57317;SDS011;43157;50.982;18.132;2024-03-06T12:46:36;48.00;;;22.00;;
57317;SDS011;43157;50.982;18.132;2024-03-06T12:49:03;47.40;;;21.10;;
57317;SDS011;43157;50.982;18.132;2024-03-06T12:51:29;53.40;;;25.60;;
57317;SDS011;43157;50.982;18.132;2024-03-06T12:53:55;65.20;;;32.90;;
57317;SDS011;43157;50.982;18.132;2024-03-06T12:56:21;52.60;;;25.50;;
57317;SDS011;43157;50.982;18.132;2024-03-06T12:58:47;55.40;;;24.30;;
57317;SDS011;43157;50.982;18.132;2024-03-06T13:01:14;54.50;;;23.80;;
57317;SDS011;43157;50.982;18.132;2024-03-06T13:03:40;60.40;;;25.40;;
57317;SDS011;43157;50.982;18.132;2024-03-06T13:06:06;56.30;;;25.20;;
57317;SDS011;43157;50.982;18.132;2024-03-06T13:08:32;56.70;;;25.50;;
57317;SDS011;43157;50.982;18.132;2024-03-06T13:10:58;56.30;;;25.70;;
57317;SDS011;43157;50.982;18.132;2024-03-06T13:13:25;59.10;;;26.50;;
57317;SDS011;43157;50.982;18.132;2024-03-06T13:15:54;58.90;;;25.10;;
57317;SDS011;43157;50.982;18.132;2024-03-06T13:18:20;52.90;;;23.80;;
57317;SDS011;43157;50.982;18.132;2024-03-06T13:20:46;54.40;;;26.10;;
57317;SDS011;43157;50.982;18.132;2024-03-06T13:23:12;49.30;;;24.30;;
57317;SDS011;43157;50.982;18.132;2024-03-06T13:25:39;53.80;;;22.70;;
57317;SDS011;43157;50.982;18.132;2024-03-06T13:28:05;54.50;;;24.00;;
57317;SDS011;43157;50.982;18.132;2024-03-06T13:30:31;55.40;;;24.40;;
57317;SDS011;43157;50.982;18.132;2024-03-06T13:32:58;55.40;;;24.30;;
57317;SDS011;43157;50.982;18.132;2024-03-06T13:35:23;57.80;;;27.90;;
57317;SDS011;43157;50.982;18.132;2024-03-06T13:37:50;52.20;;;25.00;;
57317;SDS011;43157;50.982;18.132;2024-03-06T13:40:16;85.40;;;30.80;;
57317;SDS011;43157;50.982;18.132;2024-03-06T13:42:42;58.50;;;24.20;;
57317;SDS011;43157;50.982;18.132;2024-03-06T13:45:09;63.20;;;27.30;;
57317;SDS011;43157;50.982;18.132;2024-03-06T13:47:38;60.10;;;24.60;;
57317;SDS011;43157;50.982;18.132;2024-03-06T13:50:06;55.50;;;25.10;;
57317;SDS011;43157;50.982;18.132;2024-03-06T13:52:42;56.40;;;24.50;;
57317;SDS011;43157;50.982;18.132;2024-03-06T13:55:09;85.00;;;35.70;;
57317;SDS011;43157;50.982;18.132;2024-03-06T13:57:35;73.90;;;32.80;;
57317;SDS011;43157;50.982;18.132;2024-03-06T14:00:06;62.00;;;29.00;;
57317;SDS011;43157;50.982;18.132;2024-03-06T14:02:43;57.00;;;25.90;;
57317;SDS011;43157;50.982;18.132;2024-03-06T14:05:11;65.00;;;25.50;;
57317;SDS011;43157;50.982;18.132;2024-03-06T14:07:38;65.60;;;29.60;;
57317;SDS011;43157;50.982;18.132;2024-03-06T14:10:04;59.50;;;24.50;;
57317;SDS011;43157;50.982;18.132;2024-03-06T14:12:31;65.40;;;27.10;;
57317;SDS011;43157;50.982;18.132;2024-03-06T14:14:57;67.20;;;28.60;;
57317;SDS011;43157;50.982;18.132;2024-03-06T14:17:23;56.10;;;26.40;;
57317;SDS011;43157;50.982;18.132;2024-03-06T14:19:49;68.30;;;31.50;;
57317;SDS011;43157;50.982;18.132;2024-03-06T14:22:15;58.00;;;25.80;;
57317;SDS011;43157;50.982;18.132;2024-03-06T14:24:42;60.50;;;26.20;;
57317;SDS011;43157;50.982;18.132;2024-03-06T14:27:08;64.70;;;29.30;;
57317;SDS011;43157;50.982;18.132;2024-03-06T14:29:34;58.30;;;25.80;;
57317;SDS011;43157;50.982;18.132;2024-03-06T14:32:00;65.60;;;27.20;;